Time;durP1;ratioP1;P1;durP2;ratioP2;P2;SDS_P1;SDS_P2;PMS_P1;PMS_P2;Temp;Humidity;BMP_temperature;BMP_pressure;BME280_temperature;BME280_humidity;BME280_pressure;Samples;Min_cycle;Max_cycle;Signal;HPM_P1;HPM_P2
2024/03/17 00:01:44;;;;;;;8.85;2.60;;;8.60;99.90;;;;;;4955335;29;20319;-80
2024/03/17 00:04:11;;;;;;;9.65;3.90;;;8.60;99.90;;;;;;4954392;28;20231;-80
2024/03/17 00:06:38;;;;;;;4.43;2.10;;;8.60;99.90;;;;;;4954871;29;20230;-80
2024/03/17 00:09:10;;;;;;;10.25;3.25;;;8.60;99.90;;;;;;4953701;29;20328;-80
2024/03/17 00:11:37;;;;;;;10.15;3.15;;;8.60;99.90;;;;;;4955441;29;20216;-79
2024/03/17 00:14:05;;;;;;;10.20;2.90;;;8.60;99.90;;;;;;4953444;28;20258;-79
2024/03/17 00:16:31;;;;;;;11.02;3.35;;;8.60;99.90;;;;;;4955055;29;20224;-80
2024/03/17 00:18:59;;;;;;;9.25;2.80;;;8.50;99.90;;;;;;4943346;28;20368;-79
2024/03/17 00:21:36;;;;;;;11.13;2.33;;;8.50;99.90;;;;;;4954954;28;20227;-79
2024/03/17 00:24:04;;;;;;;10.73;3.83;;;8.50;99.90;;;;;;4954392;29;20230;-79
2024/03/17 00:26:30;;;;;;;10.82;3.20;;;8.50;99.90;;;;;;4955020;29;20224;-79
2024/03/17 00:28:57;;;;;;;5.80;2.30;;;8.50;99.90;;;;;;4954204;29;20231;-80
2024/03/17 00:31:23;;;;;;;9.32;3.13;;;8.50;99.90;;;;;;4954743;29;20538;-80
2024/03/17 00:34:02;;;;;;;8.90;2.70;;;8.40;99.90;;;;;;4954678;29;20271;-80
2024/03/17 00:36:31;;;;;;;9.15;2.42;;;8.40;99.90;;;;;;4955482;29;20230;-80
2024/03/17 00:38:58;;;;;;;11.90;3.15;;;8.40;99.90;;;;;;4952849;28;20251;-80
2024/03/17 00:41:24;;;;;;;7.97;3.03;;;8.40;99.90;;;;;;4955039;28;20323;-80
2024/03/17 00:43:53;;;;;;;14.77;3.05;;;8.40;99.90;;;;;;4944214;28;20597;-80
2024/03/17 00:46:24;;;;;;;10.07;3.00;;;8.40;99.90;;;;;;4954725;29;20239;-80
2024/03/17 00:48:53;;;;;;;10.80;3.15;;;8.40;99.90;;;;;;4952449;29;20228;-80
2024/03/17 00:51:20;;;;;;;7.20;3.80;;;8.40;99.90;;;;;;4944358;28;20312;-80
2024/03/17 00:53:49;;;;;;;17.65;3.75;;;8.40;99.90;;;;;;4953462;29;20227;-80
2024/03/17 00:56:15;;;;;;;14.10;3.38;;;8.40;99.90;;;;;;4954752;29;20238;-81
2024/03/17 00:58:46;;;;;;;8.13;2.85;;;8.30;99.90;;;;;;4954543;29;20314;-80
2024/03/17 01:01:12;;;;;;;9.00;2.50;;;8.30;99.90;;;;;;4954279;28;20234;-80
2024/03/17 01:03:42;;;;;;;10.03;3.20;;;8.30;99.90;;;;;;4955019;28;20224;-80
2024/03/17 01:06:24;;;;;;;;;;;;;;;;;;;;;
2024/03/17 01:09:15;;;;;;;;;;;;;;;;;;;;;
2024/03/17 01:11:41;;;;;;;8.15;2.90;;;8.20;99.90;;;;;;4954353;28;20243;-81
2024/03/17 01:14:18;;;;;;;8.73;2.37;;;8.20;99.90;;;;;;4952646;29;20565;-81
2024/03/17 01:16:45;;;;;;;6.20;2.33;;;8.20;99.90;;;;;;4950563;28;20977;-81
2024/03/17 01:19:29;;;;;;;9.98;2.88;;;8.30;99.90;;;;;;4953637;29;20247;-81
2024/03/17 01:22:48;;;;;;;10.30;3.05;;;8.30;99.90;;;;;;4941569;28;20228;-81
2024/03/17 01:25:15;;;;;;;13.05;2.78;;;8.20;99.90;;;;;;4891532;29;20592;-80
2024/03/17 01:27:43;;;;;;;9.55;2.53;;;8.20;99.90;;;;;;4899546;29;20241;-80
2024/03/17 01:30:10;;;;;;;6.63;1.85;;;8.20;99.90;;;;;;4899152;29;20546;-80
2024/03/17 01:32:39;;;;;;;4.80;2.65;;;8.20;99.90;;;;;;4899295;29;20226;-80
2024/03/17 01:35:06;;;;;;;8.13;2.33;;;8.20;99.90;;;;;;4908575;29;20238;-80
2024/03/17 01:37:33;;;;;;;7.13;3.15;;;8.20;99.90;;;;;;4956405;28;20216;-80
2024/03/17 01:39:59;;;;;;;5.22;2.42;;;8.20;99.90;;;;;;4946338;28;20239;-80
2024/03/17 01:42:27;;;;;;;8.80;2.75;;;8.10;99.90;;;;;;4945711;28;20258;-80
2024/03/17 01:44:53;;;;;;;9.90;3.20;;;8.20;99.90;;;;;;4947244;28;20232;-80
2024/03/17 01:47:21;;;;;;;7.40;2.73;;;8.10;99.90;;;;;;4957798;28;20535;-80
2024/03/17 01:49:48;;;;;;;5.60;2.30;;;8.10;99.90;;;;;;4957434;29;20451;-80
2024/03/17 01:52:17;;;;;;;12.52;3.10;;;8.10;99.90;;;;;;4947162;28;20308;-80
2024/03/17 01:54:44;;;;;;;9.25;3.15;;;8.10;99.90;;;;;;4956823;29;20315;-80
2024/03/17 01:57:15;;;;;;;12.07;3.28;;;8.10;99.90;;;;;;4958104;29;20220;-81
2024/03/17 01:59:42;;;;;;;9.18;3.22;;;8.10;99.90;;;;;;4956973;28;20851;-80
2024/03/17 02:02:10;;;;;;;12.25;4.50;;;8.10;99.90;;;;;;4946072;29;20232;-81
2024/03/17 02:04:36;;;;;;;7.80;2.70;;;8.00;99.90;;;;;;4947053;28;20367;-81
2024/03/17 02:07:03;;;;;;;6.75;3.38;;;8.00;99.90;;;;;;4957222;28;20254;-81
2024/03/17 02:09:31;;;;;;;7.25;3.05;;;8.00;99.90;;;;;;4948886;29;20279;-80
2024/03/17 02:12:00;;;;;;;8.82;3.45;;;8.00;99.90;;;;;;4947559;28;20271;-81
2024/03/17 02:14:26;;;;;;;12.40;3.50;;;7.90;99.90;;;;;;4955948;29;20232;-80
2024/03/17 02:17:03;;;;;;;8.10;2.55;;;7.90;99.90;;;;;;4957702;29;20224;-81
2024/03/17 02:19:29;;;;;;;11.73;3.50;;;7.90;99.90;;;;;;4956594;29;20576;-80
2024/03/17 02:21:58;;;;;;;15.45;4.57;;;7.90;99.90;;;;;;4957053;29;20224;-80
2024/03/17 02:24:27;;;;;;;12.20;3.22;;;7.90;99.90;;;;;;4956818;29;20286;-80
2024/03/17 02:27:01;;;;;;;11.10;2.72;;;7.80;99.90;;;;;;4956915;29;20260;-79
2024/03/17 02:29:40;;;;;;;;;;;;;;;;;;;;;
2024/03/17 02:32:11;;;;;;;8.77;3.30;;;7.80;99.90;;;;;;4954028;28;20215;-79
2024/03/17 02:34:38;;;;;;;6.32;3.28;;;7.80;99.90;;;;;;4945402;29;20235;-79
2024/03/17 02:37:09;;;;;;;10.55;2.97;;;7.80;99.90;;;;;;4946000;28;20244;-79
2024/03/17 02:39:39;;;;;;;7.93;3.17;;;7.80;99.90;;;;;;4956315;29;20701;-79
2024/03/17 02:42:11;;;;;;;8.18;2.85;;;7.80;99.90;;;;;;4957178;29;20255;-79
2024/03/17 02:44:43;;;;;;;9.07;2.30;;;7.80;99.90;;;;;;4955870;29;20230;-79
2024/03/17 02:47:32;;;;;;;;;;;;;;;;;;;;;
2024/03/17 02:50:04;;;;;;;10.75;3.30;;;7.80;99.90;;;;;;4956444;29;20585;-79
2024/03/17 02:52:36;;;;;;;10.57;3.42;;;7.80;99.90;;;;;;4955724;29;20290;-78
2024/03/17 02:55:13;;;;;;;7.50;2.80;;;7.80;99.90;;;;;;4956002;29;20232;-78
2024/03/17 02:57:40;;;;;;;5.40;2.53;;;7.70;99.90;;;;;;4946651;28;20228;-79
2024/03/17 03:00:12;;;;;;;9.27;4.18;;;7.70;99.90;;;;;;4943153;28;20228;-79
2024/03/17 03:02:41;;;;;;;10.40;2.63;;;7.70;99.90;;;;;;4955093;28;20232;-79
2024/03/17 03:05:29;;;;;;;8.85;2.60;;;7.70;99.90;;;;;;4949902;28;20644;-79
2024/03/17 03:07:57;;;;;;;9.32;2.70;;;7.80;99.90;;;;;;4956654;28;20579;-80
2024/03/17 03:10:27;;;;;;;8.60;3.35;;;7.70;99.90;;;;;;4960139;28;20307;-79
2024/03/17 03:12:57;;;;;;;4.75;2.60;;;7.70;99.90;;;;;;4954552;29;20231;-79
2024/03/17 03:15:24;;;;;;;8.48;2.50;;;7.70;99.90;;;;;;4956067;29;20319;-79
2024/03/17 03:17:51;;;;;;;9.15;2.75;;;7.70;99.90;;;;;;4956022;29;20232;-78
2024/03/17 03:20:18;;;;;;;7.68;3.30;;;7.70;99.90;;;;;;4956071;29;20231;-78
2024/03/17 03:22:48;;;;;;;11.80;2.60;;;7.70;99.90;;;;;;4948482;29;20236;-78
2024/03/17 03:25:15;;;;;;;8.77;2.78;;;7.70;99.90;;;;;;4956118;29;20283;-79
2024/03/17 03:27:57;;;;;;;4.45;2.45;;;7.60;99.90;;;;;;4948468;29;20685;-78
2024/03/17 03:30:25;;;;;;;8.98;2.45;;;7.60;99.90;;;;;;4955466;29;20563;-79
2024/03/17 03:32:52;;;;;;;8.27;2.45;;;7.60;99.90;;;;;;4956053;29;20228;-80
2024/03/17 03:35:41;;;;;;;11.40;3.63;;;7.60;99.90;;;;;;4955687;29;20268;-79
2024/03/17 03:38:11;;;;;;;15.32;3.65;;;7.50;99.90;;;;;;4955473;29;20223;-79
2024/03/17 03:40:41;;;;;;;9.07;2.88;;;7.50;99.90;;;;;;4956146;29;20228;-78
2024/03/17 03:43:10;;;;;;;7.90;2.13;;;7.50;99.90;;;;;;4954998;29;20255;-78
2024/03/17 03:45:39;;;;;;;8.70;3.40;;;7.50;99.90;;;;;;4955920;29;20223;-79
2024/03/17 03:48:34;;;;;;;7.68;2.65;;;7.40;99.90;;;;;;4953296;28;20245;-79
2024/03/17 03:51:06;;;;;;;7.10;2.88;;;7.40;99.90;;;;;;4936251;29;20292;-79
2024/03/17 03:53:34;;;;;;;8.68;4.07;;;7.40;99.90;;;;;;4955639;29;20224;-79
2024/03/17 03:56:05;;;;;;;9.75;3.63;;;7.40;99.90;;;;;;4960107;28;20231;-79
2024/03/17 03:58:35;;;;;;;11.00;3.05;;;7.40;99.90;;;;;;4956042;29;20224;-78
2024/03/17 04:01:07;;;;;;;9.00;2.90;;;7.40;99.90;;;;;;4955292;29;20228;-79
2024/03/17 04:03:41;;;;;;;5.75;2.80;;;7.40;99.90;;;;;;4955489;29;20228;-80
2024/03/17 04:06:15;;;;;;;5.13;2.10;;;7.30;99.90;;;;;;4945102;28;20232;-79
2024/03/17 04:08:43;;;;;;;7.97;2.20;;;7.30;99.90;;;;;;4954358;29;20231;-79
2024/03/17 04:11:12;;;;;;;11.73;3.05;;;7.30;99.90;;;;;;4945345;28;20239;-78
2024/03/17 04:13:53;;;;;;;8.65;2.25;;;7.30;99.90;;;;;;4953313;29;20231;-78
2024/03/17 04:16:20;;;;;;;10.48;3.47;;;7.30;99.90;;;;;;4954326;29;20252;-79
2024/03/17 04:19:15;;;;;;;8.13;2.50;;;7.30;99.90;;;;;;4954637;29;20354;-79
2024/03/17 04:21:43;;;;;;;13.05;3.00;;;7.20;99.90;;;;;;4957535;28;20647;-78
2024/03/17 04:24:10;;;;;;;12.27;2.85;;;7.20;99.90;;;;;;4955012;28;20231;-78
2024/03/17 04:26:37;;;;;;;13.10;3.15;;;7.10;99.90;;;;;;4954251;29;20247;-79
2024/03/17 04:29:10;;;;;;;10.85;2.55;;;7.20;99.90;;;;;;4944233;29;20701;-79
2024/03/17 04:31:55;;;;;;;11.95;3.53;;;7.10;99.90;;;;;;4954095;28;20228;-79
2024/03/17 04:34:22;;;;;;;8.20;3.50;;;7.10;99.90;;;;;;4954800;29;20232;-78
2024/03/17 04:36:49;;;;;;;9.57;2.30;;;7.10;99.90;;;;;;4954405;29;20231;-79
2024/03/17 04:39:16;;;;;;;10.02;2.50;;;7.10;99.90;;;;;;4955352;29;20231;-79
2024/03/17 04:41:44;;;;;;;6.00;3.45;;;7.10;99.90;;;;;;4944451;28;20259;-80
2024/03/17 04:44:15;;;;;;;8.27;3.60;;;7.10;99.90;;;;;;4955049;29;20555;-79
2024/03/17 04:46:42;;;;;;;9.80;3.65;;;7.10;99.90;;;;;;4954578;28;20244;-79
2024/03/17 04:49:14;;;;;;;7.93;2.80;;;7.10;99.90;;;;;;4955090;29;20705;-79
2024/03/17 04:51:42;;;;;;;10.98;3.25;;;7.00;99.90;;;;;;4954323;29;20314;-79
2024/03/17 04:54:17;;;;;;;6.97;2.08;;;7.00;99.90;;;;;;4954446;29;20231;-79
2024/03/17 04:56:44;;;;;;;5.18;2.15;;;7.00;99.90;;;;;;4954096;29;20231;-79
2024/03/17 04:59:25;;;;;;;9.02;2.83;;;7.00;99.90;;;;;;4954666;28;20287;-79
2024/03/17 05:01:52;;;;;;;14.23;2.72;;;7.00;99.90;;;;;;4955767;28;20224;-79
2024/03/17 05:04:24;;;;;;;11.65;2.30;;;7.00;99.90;;;;;;4958140;29;20227;-79
2024/03/17 05:06:51;;;;;;;7.07;2.58;;;7.00;99.90;;;;;;4957746;29;20299;-79
2024/03/17 05:09:19;;;;;;;7.55;2.67;;;7.00;99.90;;;;;;4958047;29;20235;-79
2024/03/17 05:11:47;;;;;;;9.05;2.90;;;6.90;99.90;;;;;;4947779;28;20274;-79
2024/03/17 05:14:19;;;;;;;8.27;2.95;;;6.90;99.90;;;;;;4957449;29;20536;-78
2024/03/17 05:16:46;;;;;;;8.00;2.45;;;6.90;99.90;;;;;;4948349;28;20627;-79
2024/03/17 05:19:20;;;;;;;13.05;3.08;;;6.90;99.90;;;;;;4958099;28;20515;-79
2024/03/17 05:21:52;;;;;;;10.82;2.70;;;6.90;99.90;;;;;;4946892;29;20257;-79
2024/03/17 05:24:21;;;;;;;8.68;2.95;;;6.90;99.90;;;;;;4957326;28;20249;-78
2024/03/17 05:26:58;;;;;;;10.00;3.00;;;6.90;99.90;;;;;;4949153;29;20228;-78
2024/03/17 05:29:27;;;;;;;9.73;3.55;;;6.90;99.90;;;;;;4958355;29;20646;-79
2024/03/17 05:32:27;;;;;;;6.00;2.78;;;6.80;99.90;;;;;;4958440;29;20228;-79
2024/03/17 05:34:54;;;;;;;11.48;2.50;;;6.80;99.90;;;;;;4956890;29;20681;-79
2024/03/17 05:37:21;;;;;;;9.30;2.95;;;6.80;99.90;;;;;;4957620;28;20226;-79
2024/03/17 05:39:48;;;;;;;8.23;3.20;;;6.80;99.90;;;;;;4957746;28;20232;-78
2024/03/17 05:42:15;;;;;;;8.88;3.25;;;6.80;99.90;;;;;;4956609;28;20251;-79
2024/03/17 05:44:54;;;;;;;8.15;2.47;;;6.80;99.90;;;;;;4957939;28;20236;-79
2024/03/17 05:47:25;;;;;;;10.45;3.45;;;6.80;99.90;;;;;;4957778;29;20238;-79
2024/03/17 05:49:55;;;;;;;7.32;2.28;;;6.80;99.90;;;;;;4957974;29;20232;-79
2024/03/17 05:52:31;;;;;;;8.70;2.50;;;6.80;99.90;;;;;;4957565;29;20224;-79
2024/03/17 05:54:58;;;;;;;9.75;3.03;;;6.80;99.90;;;;;;4957608;28;20231;-79
2024/03/17 05:57:25;;;;;;;7.57;3.10;;;6.80;99.90;;;;;;4956017;28;20238;-80
2024/03/17 05:59:56;;;;;;;7.05;2.72;;;6.80;99.90;;;;;;4958045;29;20628;-78
2024/03/17 06:02:23;;;;;;;9.93;3.55;;;6.80;99.90;;;;;;4957334;29;20312;-79
2024/03/17 06:04:50;;;;;;;10.43;3.30;;;6.80;99.90;;;;;;4957406;28;20234;-78
2024/03/17 06:07:18;;;;;;;10.80;2.85;;;6.80;99.90;;;;;;4956951;28;20232;-79
2024/03/17 06:09:53;;;;;;;11.25;3.65;;;6.80;99.90;;;;;;4957058;29;20286;-78
2024/03/17 06:12:20;;;;;;;8.48;2.45;;;6.80;99.90;;;;;;4956917;28;20236;-79
2024/03/17 06:14:49;;;;;;;7.50;2.88;;;6.80;99.90;;;;;;4957685;29;20236;-79
2024/03/17 06:17:22;;;;;;;4.50;2.90;;;6.80;99.90;;;;;;4947800;29;20231;-79
2024/03/17 06:19:49;;;;;;;18.42;5.15;;;6.70;99.90;;;;;;4956310;29;20247;-79
2024/03/17 06:22:19;;;;;;;7.57;2.47;;;6.70;99.90;;;;;;4936958;28;20236;-79
2024/03/17 06:24:52;;;;;;;7.75;2.90;;;6.70;99.90;;;;;;4945748;29;20691;-79
2024/03/17 06:27:19;;;;;;;9.63;2.70;;;6.80;99.90;;;;;;4956326;28;20235;-79
2024/03/17 06:29:52;;;;;;;14.27;2.65;;;6.80;99.90;;;;;;4957193;29;20244;-79
2024/03/17 06:32:30;;;;;;;10.88;2.92;;;6.80;99.90;;;;;;4947515;29;20224;-79
2024/03/17 06:34:57;;;;;;;7.38;2.55;;;6.80;99.90;;;;;;4956891;29;20223;-79
2024/03/17 06:37:24;;;;;;;7.70;4.20;;;6.80;99.90;;;;;;4948021;29;20236;-80
2024/03/17 06:40:01;;;;;;;11.38;3.05;;;6.80;99.90;;;;;;4955876;29;20550;-79
2024/03/17 06:42:28;;;;;;;10.70;3.42;;;6.90;99.90;;;;;;4956560;29;20275;-79
2024/03/17 06:44:55;;;;;;;12.50;4.13;;;6.90;99.90;;;;;;4960783;28;20200;-79
2024/03/17 06:47:25;;;;;;;12.30;3.75;;;6.90;99.90;;;;;;4956185;29;20236;-80
2024/03/17 06:49:52;;;;;;;9.13;2.88;;;6.90;99.90;;;;;;4956855;29;20220;-79
2024/03/17 06:52:43;;;;;;;7.13;2.55;;;6.90;99.90;;;;;;4955822;28;20228;-79
2024/03/17 06:55:21;;;;;;;12.52;3.92;;;6.90;99.90;;;;;;4946739;28;20228;-79
2024/03/17 06:57:51;;;;;;;20.10;4.57;;;7.00;99.90;;;;;;4957308;29;20570;-79
2024/03/17 07:00:25;;;;;;;13.68;5.32;;;7.10;99.90;;;;;;4943053;28;20228;-79
2024/03/17 07:02:59;;;;;;;13.10;4.90;;;7.10;99.90;;;;;;4956539;29;20236;-80
2024/03/17 07:05:26;;;;;;;13.18;5.65;;;7.10;99.90;;;;;;4946655;29;20238;-80
2024/03/17 07:07:58;;;;;;;14.32;6.40;;;7.10;99.90;;;;;;4956496;29;20339;-80
2024/03/17 07:10:26;;;;;;;15.02;6.47;;;7.20;99.90;;;;;;4954918;29;20223;-80
2024/03/17 07:12:53;;;;;;;16.42;7.38;;;7.30;99.90;;;;;;4956644;29;20287;-80
2024/03/17 07:15:20;;;;;;;10.70;5.10;;;7.30;99.90;;;;;;4954911;29;20284;-79
2024/03/17 07:17:47;;;;;;;14.50;4.65;;;7.40;99.90;;;;;;4946242;29;20234;-79
2024/03/17 07:20:16;;;;;;;9.40;3.85;;;7.40;99.90;;;;;;4944818;28;20250;-79
2024/03/17 07:22:46;;;;;;;12.13;4.80;;;7.50;99.90;;;;;;4955498;28;20322;-80
2024/03/17 07:25:13;;;;;;;15.00;3.80;;;7.60;99.90;;;;;;4955569;28;20239;-80
2024/03/17 07:27:56;;;;;;;8.75;3.15;;;7.60;99.90;;;;;;4946662;29;20220;-79
2024/03/17 07:30:26;;;;;;;12.10;4.30;;;7.70;99.90;;;;;;4945756;28;20224;-79
2024/03/17 07:32:55;;;;;;;8.20;3.85;;;7.80;99.90;;;;;;4955266;29;20255;-79
2024/03/17 07:35:28;;;;;;;7.82;5.60;;;7.80;99.90;;;;;;4945902;29;20565;-79
2024/03/17 07:37:55;;;;;;;13.88;5.93;;;7.90;99.90;;;;;;4955329;28;20725;-79
2024/03/17 07:40:22;;;;;;;9.82;6.05;;;7.90;99.90;;;;;;4955686;28;20227;-79
2024/03/17 07:42:53;;;;;;;12.32;4.85;;;8.00;99.90;;;;;;4955182;29;20227;-80
2024/03/17 07:45:20;;;;;;;11.52;4.82;;;7.90;99.90;;;;;;4947595;29;20639;-80
2024/03/17 07:47:54;;;;;;;12.68;5.05;;;8.00;99.90;;;;;;4955314;28;20232;-79
2024/03/17 07:50:34;;;;;;;;;;;;;;;;;;;;;
2024/03/17 07:53:06;;;;;;;13.43;3.95;;;8.10;99.90;;;;;;4953734;28;21504;-79
2024/03/17 07:55:46;;;;;;;9.27;4.70;;;8.20;99.90;;;;;;4955637;29;20396;-79
2024/03/17 08:01:20;;;;;;;9.35;3.85;;;8.30;99.90;;;;;;4937310;29;20216;-79
2024/03/17 08:03:55;;;;;;;16.65;5.50;;;8.30;99.90;;;;;;4955305;29;20694;-79
2024/03/17 08:09:04;;;;;;;13.48;4.43;;;8.40;99.90;;;;;;4951422;29;20555;-79
2024/03/17 08:11:46;;;;;;;15.43;4.00;;;8.40;99.90;;;;;;4938019;29;20221;-78
2024/03/17 08:14:15;;;;;;;11.40;5.30;;;8.50;99.90;;;;;;4954020;29;20312;-79
2024/03/17 08:16:42;;;;;;;15.20;9.50;;;8.50;99.90;;;;;;4955142;29;20227;-79
2024/03/17 08:19:20;;;;;;;14.57;5.38;;;8.60;99.90;;;;;;4958169;28;20229;-79
2024/03/17 08:21:51;;;;;;;9.35;3.05;;;8.60;99.90;;;;;;4955208;28;20227;-79
2024/03/17 08:24:18;;;;;;;10.25;3.00;;;8.70;99.90;;;;;;4954085;29;20459;-79
2024/03/17 08:26:45;;;;;;;9.07;2.67;;;8.70;99.90;;;;;;4954543;29;20238;-79
2024/03/17 08:29:21;;;;;;;9.02;3.40;;;8.70;99.90;;;;;;4944555;28;20235;-79
2024/03/17 08:31:49;;;;;;;8.65;3.20;;;8.80;99.90;;;;;;4955806;29;20235;-79
2024/03/17 08:34:45;;;;;;;7.95;2.90;;;8.80;99.90;;;;;;4955224;29;20243;-79
2024/03/17 08:37:31;;;;;;;4.97;2.50;;;8.90;99.90;;;;;;4944924;29;20223;-79
2024/03/17 08:39:58;;;;;;;12.70;3.20;;;9.00;99.90;;;;;;4944707;28;20235;-79
2024/03/17 08:42:25;;;;;;;7.93;3.22;;;9.00;99.90;;;;;;4954426;28;20231;-79
2024/03/17 08:44:55;;;;;;;8.38;2.95;;;9.00;99.90;;;;;;4955499;29;20228;-80
2024/03/17 08:47:22;;;;;;;5.68;4.25;;;9.00;99.90;;;;;;4954967;29;20224;-80
2024/03/17 08:49:54;;;;;;;7.10;3.30;;;9.00;99.90;;;;;;4954679;29;20247;-80
2024/03/17 08:52:24;;;;;;;8.23;4.10;;;9.10;99.90;;;;;;4954916;28;20301;-80
2024/03/17 08:57:53;;;;;;;8.82;3.05;;;9.10;99.90;;;;;;4943126;29;20235;-80
2024/03/17 09:00:21;;;;;;;6.20;2.38;;;9.20;99.90;;;;;;4953988;28;20227;-80
2024/03/17 09:02:48;;;;;;;8.07;3.00;;;9.20;99.90;;;;;;4954602;29;20232;-81
2024/03/17 09:05:15;;;;;;;6.30;2.92;;;9.20;99.90;;;;;;4954102;29;20314;-80
2024/03/17 09:07:42;;;;;;;13.63;2.83;;;9.30;99.90;;;;;;4954886;29;20667;-80
2024/03/17 09:10:13;;;;;;;7.57;2.92;;;9.40;99.90;;;;;;4954310;29;20276;-80
2024/03/17 09:12:43;;;;;;;3.15;2.10;;;9.40;99.90;;;;;;4954325;28;20228;-80
2024/03/17 09:15:11;;;;;;;7.15;2.45;;;9.50;99.90;;;;;;4944737;29;20259;-80
2024/03/17 09:17:41;;;;;;;6.18;2.67;;;9.50;99.90;;;;;;4953960;28;20701;-80
2024/03/17 09:20:14;;;;;;;5.25;2.20;;;9.50;99.90;;;;;;4954377;28;20618;-80
2024/03/17 09:22:41;;;;;;;5.93;2.00;;;9.50;99.90;;;;;;4954722;29;20232;-80
2024/03/17 09:25:09;;;;;;;19.02;10.68;;;9.50;99.90;;;;;;4954175;29;20257;-79
2024/03/17 09:27:38;;;;;;;8.80;5.95;;;9.50;99.90;;;;;;4935096;28;20228;-79
2024/03/17 09:30:28;;;;;;;15.48;7.30;;;9.60;99.90;;;;;;4933525;29;20307;-79
2024/03/17 09:33:04;;;;;;;9.30;4.05;;;9.50;99.90;;;;;;4953449;28;20294;-79
2024/03/17 09:35:31;;;;;;;10.90;3.75;;;9.60;99.90;;;;;;4954261;29;20224;-80
2024/03/17 09:37:58;;;;;;;5.13;2.00;;;9.60;99.90;;;;;;4944064;28;20242;-80
2024/03/17 09:40:25;;;;;;;8.43;1.92;;;9.70;99.90;;;;;;4953520;29;20224;-79
2024/03/17 09:42:58;;;;;;;3.50;2.00;;;9.80;99.90;;;;;;4944842;29;20269;-79
2024/03/17 09:45:33;;;;;;;6.35;2.90;;;9.90;99.90;;;;;;4946130;28;20232;-79
2024/03/17 09:48:00;;;;;;;6.68;2.63;;;9.80;99.90;;;;;;4946861;28;20673;-79
2024/03/17 09:50:29;;;;;;;4.68;1.92;;;9.80;99.90;;;;;;4957379;28;20236;-80
2024/03/17 09:52:56;;;;;;;3.47;2.08;;;9.90;99.90;;;;;;4957831;29;20239;-80
2024/03/17 09:55:30;;;;;;;7.35;2.25;;;10.00;99.90;;;;;;4946326;28;20228;-80
2024/03/17 09:58:02;;;;;;;6.30;2.10;;;10.00;99.90;;;;;;4947561;29;20239;-80
2024/03/17 10:00:29;;;;;;;7.40;2.67;;;10.00;99.90;;;;;;4956443;28;20220;-80
2024/03/17 10:02:56;;;;;;;3.83;1.92;;;10.00;99.90;;;;;;4957877;29;20469;-79
2024/03/17 10:05:28;;;;;;;10.55;2.35;;;10.10;99.90;;;;;;4956555;29;20228;-79
2024/03/17 10:07:55;;;;;;;7.15;3.58;;;10.20;99.90;;;;;;4957964;29;20231;-79
2024/03/17 10:10:38;;;;;;;;;;;;;;;;;;;;;
2024/03/17 10:13:19;;;;;;;3.60;1.88;;;10.20;99.90;;;;;;4953885;28;20239;-80
2024/03/17 10:15:52;;;;;;;4.70;2.03;;;10.30;99.70;;;;;;4958044;29;20258;-80
2024/03/17 10:18:23;;;;;;;4.07;1.80;;;10.40;99.80;;;;;;4947208;28;20238;-80
2024/03/17 10:20:55;;;;;;;7.53;1.75;;;10.40;99.90;;;;;;4957439;29;20247;-81
2024/03/17 10:23:22;;;;;;;3.67;1.90;;;10.50;99.70;;;;;;4956392;29;20256;-81
2024/03/17 10:26:00;;;;;;;6.65;2.03;;;10.50;99.30;;;;;;4957888;28;20232;-80
2024/03/17 10:28:29;;;;;;;4.85;2.10;;;10.50;99.20;;;;;;4957044;29;20681;-80
2024/03/17 10:31:00;;;;;;;3.33;1.67;;;10.50;98.50;;;;;;4957213;29;20291;-80
2024/03/17 10:33:28;;;;;;;2.72;1.40;;;10.50;98.70;;;;;;4956746;29;20563;-80
2024/03/17 10:36:05;;;;;;;4.82;1.65;;;10.60;98.70;;;;;;4957110;28;20232;-81
2024/03/17 10:38:34;;;;;;;6.65;1.83;;;10.60;98.60;;;;;;4956878;29;20228;-80
2024/03/17 10:41:05;;;;;;;5.95;1.92;;;10.60;98.70;;;;;;4957549;28;20239;-80
2024/03/17 10:43:34;;;;;;;3.45;1.95;;;10.60;98.90;;;;;;4960354;28;20228;-80
2024/03/17 10:46:15;;;;;;;4.43;2.22;;;10.60;99.10;;;;;;4949271;28;20339;-80
2024/03/17 10:48:44;;;;;;;2.75;1.90;;;10.60;99.00;;;;;;4957133;29;20243;-81
2024/03/17 10:51:18;;;;;;;6.63;2.05;;;10.70;98.60;;;;;;4956831;28;20240;-81
2024/03/17 10:53:58;;;;;;;4.95;2.38;;;10.70;98.40;;;;;;4956905;28;20547;-80
2024/03/17 10:56:25;;;;;;;3.47;1.88;;;10.60;97.00;;;;;;4956021;29;20224;-80
2024/03/17 10:59:00;;;;;;;4.47;1.85;;;10.60;97.00;;;;;;4955410;28;20228;-80
2024/03/17 11:01:27;;;;;;;3.47;1.65;;;10.70;96.90;;;;;;4955914;28;20322;-80
2024/03/17 11:03:55;;;;;;;3.53;1.83;;;10.70;97.10;;;;;;4956605;29;20256;-79
2024/03/17 11:06:30;;;;;;;4.50;2.28;;;10.70;97.00;;;;;;4947484;29;20232;-79
2024/03/17 11:08:58;;;;;;;5.47;1.48;;;10.60;96.60;;;;;;4946757;28;20227;-80
2024/03/17 11:11:39;;;;;;;3.10;2.80;;;10.60;96.30;;;;;;4955592;28;20228;-80
2024/03/17 11:17:53;;;;;;;5.57;3.70;;;10.50;96.10;;;;;;4893312;29;20255;-80
2024/03/17 11:20:24;;;;;;;6.20;3.63;;;10.60;96.20;;;;;;4956096;29;20232;-80
2024/03/17 11:22:54;;;;;;;3.38;2.08;;;10.70;95.80;;;;;;4955741;29;20585;-80
2024/03/17 11:25:51;;;;;;;5.50;1.88;;;10.70;95.80;;;;;;4955899;29;20228;-80
2024/03/17 11:28:50;;;;;;;3.38;1.90;;;10.70;96.00;;;;;;4955524;29;20236;-80
2024/03/17 11:31:43;;;;;;;5.35;2.92;;;10.70;95.80;;;;;;4955559;29;20227;-80
2024/03/17 11:34:40;;;;;;;5.68;2.65;;;10.70;95.90;;;;;;4955307;29;20247;-81
2024/03/17 11:37:52;;;;;;;2.50;1.63;;;10.80;95.70;;;;;;4954772;29;20228;-79
2024/03/17 11:40:25;;;;;;;4.15;1.60;;;10.80;95.60;;;;;;4954752;29;20224;-79
2024/03/17 11:43:07;;;;;;;6.40;2.30;;;10.90;95.30;;;;;;4958496;29;20232;-80
2024/03/17 11:45:34;;;;;;;1.80;1.55;;;10.90;94.80;;;;;;4946476;29;20224;-79
2024/03/17 11:48:19;;;;;;;4.43;2.40;;;10.90;94.10;;;;;;4955765;29;20243;-79
2024/03/17 11:50:47;;;;;;;3.28;2.00;;;10.90;94.10;;;;;;4955686;29;20222;-79
2024/03/17 11:53:23;;;;;;;7.07;2.33;;;10.90;94.50;;;;;;4955934;29;20247;-79
2024/03/17 11:55:50;;;;;;;2.75;2.38;;;11.00;94.50;;;;;;4955198;28;20232;-80
2024/03/17 11:58:19;;;;;;;2.00;1.75;;;11.10;94.10;;;;;;4955988;29;20231;-80
2024/03/17 12:01:05;;;;;;;2.72;2.00;;;11.10;93.60;;;;;;4945465;28;20592;-80
2024/03/17 12:03:32;;;;;;;5.38;1.70;;;11.20;93.80;;;;;;4955308;29;20238;-79
2024/03/17 12:06:01;;;;;;;4.07;2.42;;;11.30;93.40;;;;;;4954630;28;20279;-81
2024/03/17 12:08:48;;;;;;;6.40;1.65;;;11.30;93.20;;;;;;4954409;28;20242;-79
2024/03/17 12:11:26;;;;;;;5.97;2.08;;;11.30;93.20;;;;;;4955653;28;20215;-79
2024/03/17 12:13:52;;;;;;;1.60;1.40;;;11.40;93.20;;;;;;4955618;29;20327;-79
2024/03/17 12:19:17;;;;;;;2.85;1.55;;;11.50;93.00;;;;;;4943549;29;20227;-79
2024/03/17 12:21:46;;;;;;;5.40;2.58;;;11.60;92.60;;;;;;4956711;29;20224;-79
2024/03/17 12:24:21;;;;;;;8.73;3.17;;;11.70;92.60;;;;;;4954864;28;20270;-79
2024/03/17 12:26:48;;;;;;;5.95;2.60;;;11.70;92.10;;;;;;4955477;28;20595;-80
2024/03/17 12:29:27;;;;;;;7.05;3.88;;;11.80;92.10;;;;;;4954505;29;20286;-80
2024/03/17 12:31:57;;;;;;;3.53;2.85;;;11.90;92.00;;;;;;4955559;28;20230;-80
2024/03/17 12:34:28;;;;;;;5.32;2.85;;;11.80;91.50;;;;;;4954637;29;20253;-80
2024/03/17 12:37:07;;;;;;;5.32;4.60;;;11.80;91.40;;;;;;4954591;29;20327;-79
2024/03/17 12:39:39;;;;;;;5.57;3.47;;;11.80;91.60;;;;;;4929700;28;20227;-80
2024/03/17 12:42:06;;;;;;;4.95;2.13;;;11.90;91.70;;;;;;4953866;29;20234;-80
2024/03/17 12:44:34;;;;;;;4.68;1.90;;;11.90;91.60;;;;;;4953842;29;20534;-80
2024/03/17 12:47:21;;;;;;;5.68;1.73;;;11.90;91.60;;;;;;4954295;29;20224;-79
2024/03/17 12:49:55;;;;;;;2.28;1.70;;;12.00;91.00;;;;;;4957672;28;20223;-80
2024/03/17 12:52:28;;;;;;;2.50;1.70;;;12.00;91.00;;;;;;4944896;28;20298;-80
2024/03/17 13:00:59;;;;;;;3.05;1.77;;;12.00;90.40;;;;;;4944740;29;20286;-79
2024/03/17 13:03:28;;;;;;;2.75;1.40;;;12.10;90.40;;;;;;4953487;28;20226;-79
2024/03/17 13:05:58;;;;;;;3.35;1.88;;;12.10;90.40;;;;;;4954714;29;20255;-80
2024/03/17 13:08:27;;;;;;;3.85;1.90;;;12.10;90.40;;;;;;4953984;29;20236;-79
2024/03/17 13:11:14;;;;;;;2.30;1.40;;;12.10;90.50;;;;;;4954945;29;20370;-79
2024/03/17 13:13:44;;;;;;;4.50;1.80;;;12.20;90.50;;;;;;4959781;28;20262;-79
2024/03/17 13:16:16;;;;;;;3.40;1.80;;;12.20;90.30;;;;;;4964737;28;20234;-80
2024/03/17 13:18:43;;;;;;;2.78;1.65;;;12.20;90.10;;;;;;4973330;28;20611;-79
2024/03/17 13:21:16;;;;;;;6.78;1.60;;;12.20;90.30;;;;;;4972285;28;20224;-79
2024/03/17 13:23:51;;;;;;;2.63;1.40;;;12.10;89.60;;;;;;4976896;28;20235;-79
2024/03/17 13:26:18;;;;;;;2.15;1.30;;;12.10;89.70;;;;;;4976986;28;20314;-80
2024/03/17 13:28:46;;;;;;;1.90;1.20;;;12.10;89.70;;;;;;4974977;28;20310;-79
2024/03/17 13:31:13;;;;;;;11.55;2.90;;;12.10;90.00;;;;;;4976896;28;20219;-79
2024/03/17 13:33:43;;;;;;;4.72;3.10;;;12.20;89.10;;;;;;4967931;28;20238;-79
2024/03/17 13:36:10;;;;;;;3.97;3.53;;;12.20;89.10;;;;;;4976576;28;20684;-78
2024/03/17 13:38:39;;;;;;;3.08;1.85;;;12.20;88.90;;;;;;4976515;28;20228;-78
2024/03/17 13:41:08;;;;;;;3.15;1.83;;;12.20;88.80;;;;;;4976989;28;20673;-78
2024/03/17 13:43:35;;;;;;;4.40;2.13;;;12.20;89.20;;;;;;4976895;28;20231;-79